• Join FlightAware (Why Join?)
  • Login
  • US Flag 
12:58AM EDT


 

Airport Tracker/Info


-or-


 

Live Flight TrackerFlight Track Log ✈ CTL13 ✈ 24-Apr-2013 ✈ KMDW - KGRR

Flight Track Log - Related Links

Times and Time Zones

All times are in EDT time to prevent confusion due to time zone crossing. See the CTL13 flight status page for this flight to view local times or setup timezone preferences in your user account.

Time Position Orientation Groundspeed Altitude Reporting Facility
EDT Latitude Longitude Course Direction KTS MPH feet Rate Location/Type
11:12PM 41.7667 -87.7500 90° East 134 154 1,700  Level Chicago TRACON
11:13PM 41.7667 -87.7000 90° East 148 170 3,000 660 Climbing Chicago TRACON
11:14PM 41.7833 -87.6333 71° East 196 226 3,000 780 Level Chicago TRACON
11:15PM 41.7833 -87.5667 90° East 157 181 4,600 1,500 Climbing Chicago TRACON
11:16PM 41.7858 -87.5161 86° East 158 182 6,000 660 Climbing Chicago Center
11:17PM 41.7875 -87.4522 88° East 170 196 6,000  Level Chicago Center
11:18PM 41.7889 -87.3808 88° East 187 215 6,000  Level Chicago Center
11:19PM 41.7919 -87.3078 87° East 196 226 6,000  Level Chicago Center
11:20PM 41.7958 -87.2375 86° East 191 220 6,000  Level Chicago Center
11:21PM 41.8169 -87.1747 66° East 189 217 6,000  Level Chicago Center
11:22PM 41.8533 -87.1225 47° Northeast 191 220 6,000  Level Chicago Center
11:23PM 41.8883 -87.0689 49° Northeast 192 221 6,000  Level Chicago Center
11:24PM 41.9281 -87.0039 51° Northeast 191 220 6,100 480 Climbing Chicago Center
11:25PM 41.9583 -86.9594 47° Northeast 164 189 7,000 420 Climbing Chicago Center
11:26PM 41.9911 -86.9089 49° Northeast 178 205 7,000  Level Chicago Center
11:27PM 42.0239 -86.8592 48° Northeast 178 205 7,000  Level Chicago Center
11:28PM 42.0517 -86.8142 50° Northeast 168 193 7,000  Level Chicago Center
11:29PM 42.0814 -86.7669 50° Northeast 167 192 7,000  Level Chicago Center
11:30PM 42.1097 -86.7189 52° Northeast 165 190 7,000  Level Chicago Center
11:31PM 42.1406 -86.6719 48° Northeast 167 192 7,000  Level Chicago Center
11:32PM 42.1694 -86.6253 50° Northeast 163 188 7,000  Level Chicago Center
11:33PM 42.2061 -86.5692 49° Northeast 165 190 7,000  Level Chicago Center
11:34PM 42.2358 -86.5233 49° Northeast 163 188 7,000  Level Chicago Center
11:35PM 42.2664 -86.4781 48° Northeast 163 188 7,100  Climbing Chicago Center
11:36PM 42.2969 -86.4325 48° Northeast 164 189 7,100  Level Chicago Center
11:37PM 42.3261 -86.3894 47° Northeast 165 190 7,100  Level Chicago Center
11:38PM 42.3575 -86.3442 47° Northeast 166 191 7,100  Level Chicago Center
11:39PM 42.3869 -86.2969 50° Northeast 165 190 7,100  Level Chicago Center
11:40PM 42.4178 -86.2508 48° Northeast 165 190 7,100 -60 Level Chicago Center
11:41PM 42.4478 -86.2044 49° Northeast 165 190 7,000 -60 Descending Chicago Center
11:42PM 42.4842 -86.1483 49° Northeast 165 190 7,000  Level Chicago Center
11:43PM 42.5153 -86.1022 48° Northeast 166 191 7,100  Climbing Chicago Center
11:44PM 42.5458 -86.0556 48° Northeast 166 191 7,100 -300 Level Chicago Center
11:45PM 42.5761 -86.0067 50° Northeast 168 193 6,500 -780 Descending Chicago Center
11:46PM 42.6108 -85.9522 49° Northeast 183 211 5,600 -960 Descending Chicago Center
11:47PM 42.6467 -85.8944 50° Northeast 196 226 4,600 -1,020 Descending Chicago Center
11:48PM 42.6836 -85.8347 50° Northeast 204 235 3,600 -960 Descending Chicago Center
11:49PM 42.7214 -85.7764 49° Northeast 207 238 2,700 -600 Descending Chicago Center
11:50PM 42.7611 -85.7222 45° Northeast 206 237 2,400 -300 Descending Chicago Center
11:51PM 42.7983 -85.6711 45° Northeast 199 229 2,200 -300 Descending Chicago Center
11:52PM 42.8347 -85.6203 46° Northeast 194 223 1,800 -360 Descending Chicago Center
11:53PM 42.8739 -85.5789 38° Northeast 179 206 1,500 -480 Descending Chicago Center
11:54PM 42.8769 -85.5331 85° East 160 184 900 -600 Descending Chicago Center
11:56PM 42.8808 -85.5228 56° Northeast  Level Estimated
12:03AM 42.8808 -85.5228 56° Northeast  Level Estimated